Time;durP1;ratioP1;P1;durP2;ratioP2;P2;SDS_P1;SDS_P2;PMS_P1;PMS_P2;Temp;Humidity;BMP_temperature;BMP_pressure;BME280_temperature;BME280_humidity;BME280_pressure;Samples;Min_cycle;Max_cycle;Signal;HPM_P1;HPM_P2
2022/01/31 00:00:46;;;;;;;17.80;5.30;;;;;;;-142.75;100.00;78159.16;5029425;28;20506;-69
2022/01/31 00:03:11;;;;;;;15.90;4.70;;;;;;;-142.75;100.00;78165.06;5030112;28;20286;-68
2022/01/31 00:05:36;;;;;;;24.67;6.53;;;;;;;-142.75;100.00;78163.09;5030626;28;20022;-68
2022/01/31 00:08:02;;;;;;;30.50;6.35;;;;;;;-142.75;100.00;78161.13;5030326;28;20302;-68
2022/01/31 00:10:29;;;;;;;23.45;6.22;;;;;;;-142.75;100.00;78145.38;5031019;28;20029;-68
2022/01/31 00:13:02;;;;;;;19.37;6.13;;;;;;;-142.75;100.00;78147.34;5030666;28;20407;-68
2022/01/31 00:15:28;;;;;;;25.27;6.27;;;;;;;-142.75;100.00;78135.53;5030690;28;20021;-68
2022/01/31 00:17:54;;;;;;;22.23;6.90;;;;;;;-142.75;100.00;78133.56;5030205;28;20025;-68
2022/01/31 00:20:20;;;;;;;26.08;7.55;;;;;;;-142.75;100.00;78141.44;5030521;28;20028;-68
2022/01/31 00:22:45;;;;;;;25.00;7.50;;;;;;;-142.75;100.00;78133.56;5030611;28;20033;-68
2022/01/31 00:25:11;;;;;;;29.40;8.05;;;;;;;-142.75;100.00;78129.63;5029294;28;20048;-67
2022/01/31 00:27:36;;;;;;;22.88;7.28;;;;;;;-142.75;100.00;78109.94;5029988;28;20022;-67
2022/01/31 00:30:03;;;;;;;21.65;8.10;;;;;;;-142.75;100.00;78129.63;5031607;28;20033;-67
2022/01/31 00:32:29;;;;;;;28.20;9.17;;;;;;;-142.75;100.00;78106.00;5034544;28;20038;-67
2022/01/31 00:34:56;;;;;;;28.35;8.25;;;;;;;-142.75;100.00;78111.91;5033101;28;20631;-67
2022/01/31 00:37:22;;;;;;;24.60;9.57;;;;;;;-142.75;100.00;78082.38;5034318;28;20387;-68
2022/01/31 00:39:47;;;;;;;23.27;8.65;;;;;;;-142.75;100.00;78082.38;5032763;28;20029;-67
2022/01/31 00:42:12;;;;;;;24.87;8.50;;;;;;;-142.75;100.00;78066.63;5034427;28;20414;-68
2022/01/31 00:44:49;;;;;;;25.90;9.67;;;;;;;-142.75;100.00;78074.50;5034386;28;20029;-68
2022/01/31 00:47:24;;;;;;;19.63;7.82;;;;;;;-142.75;100.00;78066.63;5033641;28;20298;-68
2022/01/31 00:50:04;;;;;;;22.27;7.70;;;;;;;-142.75;100.00;78064.66;5032683;28;20055;-68
2022/01/31 00:52:29;;;;;;;20.83;8.57;;;;;;;-142.75;100.00;78044.94;5034180;28;20074;-68
2022/01/31 00:54:54;;;;;;;27.05;7.88;;;;;;;-142.75;100.00;78052.81;5034141;28;20491;-68
2022/01/31 00:57:20;;;;;;;21.03;8.00;;;;;;;-142.75;100.00;78041.00;5034053;28;20104;-67
2022/01/31 00:59:45;;;;;;;23.77;7.87;;;;;;;-142.75;100.00;78035.09;5033637;28;20031;-66
2022/01/31 01:02:10;;;;;;;26.73;8.27;;;;;;;-142.75;100.00;78033.13;5033987;28;20272;-66
2022/01/31 01:04:36;;;;;;;27.15;8.75;;;;;;;-142.75;100.00;78019.34;5033927;28;20036;-67
2022/01/31 01:07:01;;;;;;;22.75;7.85;;;;;;;-142.75;100.00;78007.53;5033858;28;20032;-68
2022/01/31 01:09:27;;;;;;;24.13;8.38;;;;;;;-142.75;100.00;77991.78;5033461;28;20049;-67
2022/01/31 01:11:52;;;;;;;21.52;7.95;;;;;;;-142.75;100.00;77989.81;5033779;28;20033;-68
2022/01/31 01:14:17;;;;;;;21.73;7.25;;;;;;;-142.75;100.00;77979.97;5033779;28;20491;-67
2022/01/31 01:16:42;;;;;;;24.27;7.83;;;;;;;-142.75;100.00;77976.03;5033702;28;20514;-67
2022/01/31 01:19:08;;;;;;;24.27;7.40;;;;;;;-142.75;100.00;77968.16;5033382;28;20264;-67
2022/01/31 01:21:33;;;;;;;23.40;6.80;;;;;;;-142.75;100.00;77948.47;5033609;28;20279;-68
2022/01/31 01:23:58;;;;;;;28.35;7.25;;;;;;;-142.75;100.00;77930.75;5033636;28;20544;-68
2022/01/31 01:26:24;;;;;;;21.40;6.17;;;;;;;-142.75;100.00;77928.78;5032195;28;20029;-68
2022/01/31 01:28:49;;;;;;;19.67;7.03;;;;;;;-142.75;100.00;77918.94;5032944;28;20283;-67
2022/01/31 01:31:15;;;;;;;17.17;6.53;;;;;;;-142.75;100.00;77901.19;5033457;28;20392;-67
2022/01/31 01:33:41;;;;;;;18.83;5.75;;;;;;;-142.75;100.00;77903.16;5033376;28;20060;-67
2022/01/31 01:36:07;;;;;;;17.03;5.33;;;;;;;-142.75;100.00;77893.31;5033381;28;20025;-67
2022/01/31 01:38:33;;;;;;;;;;;;;;;-142.75;100.00;77875.59;5030762;28;20453;-68
2022/01/31 01:40:59;;;;;;;11.53;4.73;;;;;;;-142.75;100.00;77873.63;5032837;28;19999;-68
2022/01/31 01:43:25;;;;;;;10.20;4.38;;;;;;;-142.75;100.00;77848.03;5033223;28;20075;-67
2022/01/31 01:45:52;;;;;;;20.67;4.70;;;;;;;-142.75;100.00;77820.47;5033233;28;20029;-67
2022/01/31 01:48:18;;;;;;;12.93;4.07;;;;;;;-142.75;100.00;77818.50;5032751;28;20045;-68
2022/01/31 01:50:43;;;;;;;12.05;3.85;;;;;;;-142.75;100.00;77794.88;5031829;28;20068;-68
2022/01/31 01:53:09;;;;;;;16.83;3.47;;;;;;;-142.75;100.00;77790.94;5033053;28;20398;-68
2022/01/31 01:55:35;;;;;;;13.35;4.57;;;;;;;-142.75;100.00;77759.44;5033017;28;20037;-67
2022/01/31 01:58:03;;;;;;;;;;;;;;;-142.75;100.00;77745.66;5030233;28;20025;-68
2022/01/31 02:00:43;;;;;;;19.43;4.33;;;;;;;-142.75;100.00;77723.97;5032920;28;20607;-68
2022/01/31 02:03:08;;;;;;;26.33;4.33;;;;;;;-142.75;100.00;77706.25;5032997;28;20487;-68
2022/01/31 02:05:34;;;;;;;24.83;4.25;;;;;;;-142.75;100.00;77696.41;5032811;28;20029;-68
2022/01/31 02:07:59;;;;;;;19.40;4.37;;;;;;;-142.75;100.00;77694.44;5032708;28;20038;-68
2022/01/31 02:10:25;;;;;;;23.25;5.30;;;;;;;-142.75;100.00;77694.44;5033205;28;20378;-68
2022/01/31 02:12:51;;;;;;;21.67;4.07;;;;;;;-142.75;100.00;77680.66;5032891;28;20017;-68
2022/01/31 02:15:18;;;;;;;15.45;3.58;;;;;;;-142.75;100.00;77659.00;5031260;28;20029;-68
2022/01/31 02:17:44;;;;;;;20.67;3.57;;;;;;;-142.75;100.00;77635.38;5032770;28;20017;-67
2022/01/31 02:20:10;;;;;;;18.75;3.00;;;;;;;-142.75;100.00;77637.34;5032768;28;20399;-68
2022/01/31 02:22:36;;;;;;;;;;;;;;;-142.75;100.00;77609.78;5034623;28;20026;-67
2022/01/31 02:25:04;;;;;;;13.60;2.93;;;;;;;-142.75;100.00;77631.44;5031714;28;19913;-67
2022/01/31 02:27:31;;;;;;;25.30;3.60;;;;;;;-142.75;100.00;77621.59;5032784;28;20079;-68
2022/01/31 02:29:57;;;;;;;16.50;3.53;;;;;;;-142.75;100.00;77619.63;5032443;28;20091;-67
2022/01/31 02:32:23;;;;;;;21.88;3.67;;;;;;;-142.75;100.00;77609.78;5032499;28;20045;-67
2022/01/31 02:34:50;;;;;;;28.67;4.53;;;;;;;-142.75;100.00;77613.72;5032513;28;20052;-68
2022/01/31 02:37:16;;;;;;;13.83;2.87;;;;;;;-142.75;100.00;77605.84;5032596;28;20071;-68
2022/01/31 02:39:42;;;;;;;15.23;2.97;;;;;;;-142.75;100.00;77594.03;5032225;28;20021;-68
2022/01/31 02:42:08;;;;;;;16.98;2.70;;;;;;;-142.75;100.00;77578.28;5032463;28;20111;-67
2022/01/31 02:44:33;;;;;;;11.82;3.10;;;;;;;-142.75;100.00;77574.34;5032335;28;20025;-68
2022/01/31 02:46:58;;;;;;;14.52;2.65;;;;;;;-142.75;100.00;77562.53;5032433;28;20098;-68
2022/01/31 02:49:28;;;;;;;17.92;2.75;;;;;;;-142.75;100.00;77556.63;5032294;28;20057;-66
2022/01/31 02:51:59;;;;;;;18.77;3.00;;;;;;;-142.75;100.00;77562.53;5031186;28;20030;-67
2022/01/31 02:54:25;;;;;;;17.70;3.03;;;;;;;-142.75;100.00;77568.44;5031725;28;20509;-67
2022/01/31 02:56:51;;;;;;;13.10;2.63;;;;;;;-142.75;100.00;77566.47;5031932;28;20025;-67
2022/01/31 02:59:16;;;;;;;17.58;3.50;;;;;;;-142.75;100.00;77562.53;5031477;28;20433;-67
2022/01/31 03:01:41;;;;;;;22.50;2.80;;;;;;;-142.75;100.00;77552.69;5031868;28;20021;-67
2022/01/31 03:04:07;;;;;;;11.55;2.63;;;;;;;-142.75;100.00;77552.69;5031785;28;20291;-67
2022/01/31 03:06:34;;;;;;;14.07;2.80;;;;;;;-142.75;100.00;77548.75;5031713;28;20021;-66
2022/01/31 03:08:59;;;;;;;7.83;1.83;;;;;;;-142.75;100.00;77554.66;5031122;28;20053;-66
2022/01/31 03:11:24;;;;;;;16.60;2.90;;;;;;;-142.75;100.00;77542.84;5031746;28;20040;-67
2022/01/31 03:13:50;;;;;;;13.17;2.63;;;;;;;-142.75;100.00;77546.78;5031601;28;20307;-67
2022/01/31 03:16:15;;;;;;;16.37;3.03;;;;;;;-142.75;100.00;77560.56;5031463;28;20279;-67
2022/01/31 03:18:40;;;;;;;18.30;2.58;;;;;;;-142.75;100.00;77540.88;5031093;28;20387;-67
2022/01/31 03:21:06;;;;;;;12.40;2.28;;;;;;;-142.75;100.00;77542.84;5031336;28;20021;-67
2022/01/31 03:23:33;;;;;;;22.23;3.00;;;;;;;-142.75;100.00;77556.63;5031264;28;20082;-67
2022/01/31 03:25:58;;;;;;;11.77;2.30;;;;;;;-142.75;100.00;77558.59;5031252;28;20272;-66
2022/01/31 03:28:24;;;;;;;19.80;2.47;;;;;;;-142.75;100.00;77562.53;5030810;28;20032;-68
2022/01/31 03:30:51;;;;;;;18.30;2.77;;;;;;;-142.75;100.00;77558.59;5031260;28;20681;-68
2022/01/31 03:33:16;;;;;;;11.87;2.53;;;;;;;-142.75;100.00;77558.59;5031184;28;20026;-68
2022/01/31 03:35:41;;;;;;;11.93;2.05;;;;;;;-142.75;100.00;77558.59;5031515;28;20037;-68
2022/01/31 03:38:07;;;;;;;20.10;3.17;;;;;;;-142.75;100.00;77554.66;5030722;28;20022;-68
2022/01/31 03:40:32;;;;;;;16.93;2.53;;;;;;;-142.75;100.00;77554.66;5031170;28;20329;-68
2022/01/31 03:42:57;;;;;;;13.13;2.25;;;;;;;-142.75;100.00;77540.88;5030938;28;20492;-68
2022/01/31 03:45:23;;;;;;;15.18;2.17;;;;;;;-142.75;100.00;77527.09;5031096;28;20029;-68
2022/01/31 03:47:48;;;;;;;13.13;2.20;;;;;;;-142.75;100.00;77531.03;5029338;28;20024;-68
2022/01/31 03:50:17;;;;;;;11.25;2.10;;;;;;;-142.75;100.00;77534.97;5030931;28;20079;-68
2022/01/31 03:52:42;;;;;;;21.33;2.17;;;;;;;-142.75;100.00;77550.72;5030771;28;20025;-68
2022/01/31 03:55:12;;;;;;;15.00;2.40;;;;;;;-142.75;100.00;77558.59;5031040;28;20040;-68
2022/01/31 03:57:38;;;;;;;17.70;2.60;;;;;;;-142.75;100.00;77552.69;5030644;28;20096;-68
2022/01/31 04:00:06;;;;;;;19.20;2.60;;;;;;;-142.75;100.00;77534.97;5029437;28;20112;-69
2022/01/31 04:02:32;;;;;;;18.27;2.17;;;;;;;-142.75;100.00;77538.91;5030542;28;20025;-68
2022/01/31 04:04:58;;;;;;;19.80;2.60;;;;;;;-142.75;100.00;77531.03;5029426;28;20029;-68
2022/01/31 04:07:23;;;;;;;13.32;2.13;;;;;;;-142.75;100.00;77527.09;5029227;28;20551;-67
2022/01/31 04:09:48;;;;;;;13.05;2.38;;;;;;;-142.75;100.00;77509.38;5029067;28;20029;-68
2022/01/31 04:12:14;;;;;;;17.10;2.60;;;;;;;-142.75;100.00;77503.47;5030844;28;20024;-68
2022/01/31 04:14:39;;;;;;;11.60;2.40;;;;;;;-142.75;100.00;77499.53;5030981;28;20040;-68
2022/01/31 04:17:08;;;;;;;7.40;2.23;;;;;;;-142.75;100.00;77497.56;5030646;28;20029;-68
2022/01/31 04:19:33;;;;;;;11.93;2.40;;;;;;;-142.75;100.00;77503.47;5030264;28;20339;-67
2022/01/31 04:21:59;;;;;;;16.38;2.40;;;;;;;-142.75;100.00;77491.66;5030547;28;20108;-68
2022/01/31 04:24:31;;;;;;;18.38;2.92;;;;;;;-142.75;100.00;77489.69;5030628;28;20034;-68
2022/01/31 04:26:59;;;;;;;18.40;2.40;;;;;;;-142.75;100.00;77509.38;5030616;28;20475;-68
2022/01/31 04:29:28;;;;;;;16.90;2.50;;;;;;;-142.75;100.00;77481.81;5030083;28;20017;-67
2022/01/31 04:31:54;;;;;;;15.37;2.47;;;;;;;-142.75;100.00;77475.91;5030551;28;20032;-68
2022/01/31 04:34:22;;;;;;;17.33;2.17;;;;;;;-142.75;100.00;77489.69;5029164;28;20112;-68
2022/01/31 04:36:47;;;;;;;13.37;2.33;;;;;;;-142.75;100.00;77487.72;5030459;28;20033;-67
2022/01/31 04:39:17;;;;;;;12.77;1.77;;;;;;;-142.75;100.00;77475.91;5030061;28;20033;-68
2022/01/31 04:41:43;;;;;;;12.33;1.80;;;;;;;-142.75;100.00;77466.03;5030439;28;20315;-68
2022/01/31 04:44:10;;;;;;;19.07;2.77;;;;;;;-142.75;100.00;77464.09;5030479;28;20430;-68
2022/01/31 04:46:35;;;;;;;;;;;;;;;-142.75;100.00;77477.88;5030765;28;20466;-68
2022/01/31 04:49:00;;;;;;;12.00;1.53;;;;;;;-142.75;100.00;77468.03;5029911;28;19952;-68
2022/01/31 04:51:25;;;;;;;17.08;2.30;;;;;;;-142.75;100.00;77473.94;5029021;28;20120;-67
2022/01/31 04:53:51;;;;;;;16.60;2.50;;;;;;;-142.75;100.00;77470.00;5030312;28;20025;-68
2022/01/31 04:56:16;;;;;;;14.85;2.67;;;;;;;-142.75;100.00;77468.03;5030331;28;20406;-68
2022/01/31 04:58:41;;;;;;;20.60;2.75;;;;;;;-142.75;100.00;77473.94;5028645;28;20099;-68
2022/01/31 05:01:07;;;;;;;14.27;2.97;;;;;;;-142.75;100.00;77471.97;5030403;28;20054;-68
2022/01/31 05:03:33;;;;;;;13.82;2.30;;;;;;;-142.75;100.00;77485.75;5030139;28;20287;-68
2022/01/31 05:05:59;;;;;;;13.07;2.10;;;;;;;-142.75;100.00;77475.91;5030159;28;20483;-68
2022/01/31 05:08:27;;;;;;;19.40;3.17;;;;;;;-142.75;100.00;77509.38;5028502;28;20112;-68
2022/01/31 05:10:53;;;;;;;22.70;2.90;;;;;;;-142.75;100.00;77533.00;5030253;28;20026;-66
2022/01/31 05:13:18;;;;;;;10.75;1.75;;;;;;;-142.75;100.00;77533.00;5030176;28;20104;-67
2022/01/31 05:15:45;;;;;;;12.15;1.98;;;;;;;-142.75;100.00;77576.31;5031968;28;20163;-67
2022/01/31 05:18:11;;;;;;;12.63;2.20;;;;;;;-142.75;100.00;77586.16;5031942;28;20350;-67
2022/01/31 05:20:36;;;;;;;;;;;;;;;-142.75;100.00;77568.44;5034167;28;20029;-67
2022/01/31 05:23:03;;;;;;;12.77;1.80;;;;;;;-142.75;100.00;77582.22;5033555;28;19912;-67
2022/01/31 05:25:29;;;;;;;16.67;2.67;;;;;;;-142.75;100.00;77578.28;5033640;28;20108;-67
2022/01/31 05:30:26;;;;;;;17.57;2.90;;;;;;;-142.75;100.00;77586.16;5029493;28;20056;-69
2022/01/31 05:32:53;;;;;;;15.50;2.65;;;;;;;-142.75;100.00;77570.41;5031261;28;20025;-68
2022/01/31 05:35:18;;;;;;;18.40;1.93;;;;;;;-142.75;100.00;77558.59;5033326;28;20372;-68
2022/01/31 05:37:43;;;;;;;19.63;2.70;;;;;;;-142.75;100.00;77558.59;5032095;28;20026;-68
2022/01/31 05:40:09;;;;;;;24.20;3.65;;;;;;;-142.75;100.00;77546.78;5033053;28;20025;-69
2022/01/31 05:42:35;;;;;;;19.55;3.03;;;;;;;-142.75;100.00;77542.84;5033207;28;20372;-68
2022/01/31 05:45:01;;;;;;;14.57;2.38;;;;;;;-142.75;100.00;77527.09;5037504;28;20032;-69
2022/01/31 05:47:26;;;;;;;13.30;2.88;;;;;;;-142.75;100.00;77527.09;5053059;28;20033;-68
2022/01/31 05:49:51;;;;;;;12.25;2.20;;;;;;;-142.75;100.00;77525.13;5051414;28;20053;-68
2022/01/31 05:52:17;;;;;;;17.90;2.57;;;;;;;-142.75;100.00;77527.09;5052945;28;20025;-68
2022/01/31 05:54:43;;;;;;;25.38;2.97;;;;;;;-142.75;100.00;77538.91;5053008;28;20275;-67
2022/01/31 05:57:09;;;;;;;14.50;3.20;;;;;;;-142.75;100.00;77538.91;5052746;28;20027;-69
2022/01/31 05:59:35;;;;;;;16.30;2.77;;;;;;;-142.75;100.00;77542.84;5052529;28;20204;-69
2022/01/31 06:02:01;;;;;;;17.02;2.90;;;;;;;-142.75;100.00;77538.91;5052087;28;20561;-68
2022/01/31 06:04:27;;;;;;;25.33;2.97;;;;;;;-142.75;100.00;77548.75;5051547;28;20032;-68
2022/01/31 06:06:53;;;;;;;21.37;2.70;;;;;;;-142.75;100.00;77542.84;5052647;28;20025;-68
2022/01/31 06:09:18;;;;;;;20.63;2.95;;;;;;;-142.75;100.00;77542.84;5052273;28;20483;-68
2022/01/31 06:11:45;;;;;;;21.52;3.67;;;;;;;-142.75;100.00;77538.91;5052506;28;20662;-68
2022/01/31 06:14:11;;;;;;;27.30;3.50;;;;;;;-142.75;100.00;77550.72;5050902;28;20028;-68
2022/01/31 06:16:36;;;;;;;11.80;3.28;;;;;;;-142.75;100.00;77548.75;5052492;28;20025;-67
2022/01/31 06:19:02;;;;;;;18.45;3.47;;;;;;;-142.75;100.00;77525.13;5050827;28;20017;-67
2022/01/31 06:21:28;;;;;;;24.92;3.13;;;;;;;-142.75;100.00;77521.19;5051105;28;20124;-67
2022/01/31 06:23:53;;;;;;;22.80;3.13;;;;;;;-142.75;100.00;77503.47;5052396;28;20029;-69
2022/01/31 06:26:20;;;;;;;22.17;3.25;;;;;;;-142.75;100.00;77495.59;5052434;28;20367;-68
2022/01/31 06:28:47;;;;;;;19.70;2.90;;;;;;;-142.75;100.00;77515.28;5050508;28;20421;-68
2022/01/31 06:31:12;;;;;;;13.77;2.53;;;;;;;-142.75;100.00;77489.69;5052254;28;20036;-67
2022/01/31 06:33:38;;;;;;;17.55;2.92;;;;;;;-142.75;100.00;77483.78;5052217;28;20028;-67
2022/01/31 06:36:03;;;;;;;17.92;3.00;;;;;;;-142.75;100.00;77507.41;5051613;28;20025;-68
2022/01/31 06:38:28;;;;;;;20.27;3.00;;;;;;;-142.75;100.00;77501.50;5051748;28;20055;-68
2022/01/31 06:40:54;;;;;;;19.95;2.85;;;;;;;-142.75;100.00;77497.56;5050833;28;20029;-68
2022/01/31 06:43:20;;;;;;;17.40;3.22;;;;;;;-142.75;100.00;77509.38;5050584;28;20032;-68
2022/01/31 06:45:46;;;;;;;33.65;4.32;;;;;;;-142.75;100.00;77491.66;5052074;28;20033;-68
2022/01/31 06:48:11;;;;;;;22.52;3.35;;;;;;;-142.75;100.00;77487.72;5050185;28;20017;-69
2022/01/31 06:50:36;;;;;;;13.20;2.17;;;;;;;-142.75;100.00;77507.41;5051902;28;20044;-67
2022/01/31 06:53:02;;;;;;;24.88;3.75;;;;;;;-142.75;100.00;77505.44;5051951;28;20029;-69
2022/01/31 06:55:29;;;;;;;20.02;3.38;;;;;;;-142.75;100.00;77523.16;5051861;28;20440;-67
2022/01/31 06:57:55;;;;;;;19.17;2.80;;;;;;;-142.75;100.00;77562.53;5049999;28;20398;-67
2022/01/31 07:00:22;;;;;;;19.08;2.75;;;;;;;-142.75;100.00;77550.72;5051716;28;20025;-68
2022/01/31 07:02:49;;;;;;;20.23;3.23;;;;;;;-142.75;100.00;77586.16;5045953;28;20025;-69
2022/01/31 07:05:16;;;;;;;19.90;2.90;;;;;;;-142.75;100.00;77574.34;5031721;28;20029;-68
2022/01/31 07:07:42;;;;;;;17.10;2.93;;;;;;;-142.75;100.00;77590.09;5030136;28;20104;-68
2022/01/31 07:10:08;;;;;;;;;;;;;;;-142.75;100.00;77590.09;5031707;28;20475;-68
2022/01/31 07:12:38;;;;;;;19.67;3.10;;;;;;;-142.75;100.00;77596.00;5031517;28;19913;-68
2022/01/31 07:15:07;;;;;;;22.00;2.97;;;;;;;-142.75;100.00;77596.00;5031578;28;20025;-67
2022/01/31 07:17:35;;;;;;;20.93;4.10;;;;;;;-142.75;100.00;77601.91;5031473;28;20108;-67
2022/01/31 07:20:03;;;;;;;19.63;2.90;;;;;;;-142.75;100.00;77609.78;5029861;28;20091;-68
2022/01/31 07:22:34;;;;;;;18.47;3.43;;;;;;;-142.75;100.00;77601.91;5031294;28;20066;-68
2022/01/31 07:25:04;;;;;;;18.53;3.10;;;;;;;-142.75;100.00;77605.84;5029947;28;20083;-67
2022/01/31 07:27:30;;;;;;;26.87;3.23;;;;;;;-142.75;100.00;77597.97;5031252;28;20032;-67
2022/01/31 07:29:56;;;;;;;29.38;3.75;;;;;;;-142.75;100.00;77609.78;5030817;28;20033;-68
2022/01/31 07:32:21;;;;;;;22.67;3.58;;;;;;;-142.75;100.00;77597.97;5031092;28;20108;-68
2022/01/31 07:34:49;;;;;;;26.08;3.30;;;;;;;-142.75;100.00;77584.19;5031243;28;20033;-68
2022/01/31 07:37:14;;;;;;;24.63;4.60;;;;;;;-142.75;100.00;77590.09;5031004;28;20033;-68
2022/01/31 07:39:41;;;;;;;20.95;3.58;;;;;;;-142.75;100.00;77594.03;5030456;28;20391;-68
2022/01/31 07:42:07;;;;;;;28.97;4.17;;;;;;;-142.75;100.00;77601.91;5029754;28;20026;-68
2022/01/31 07:44:32;;;;;;;24.38;3.88;;;;;;;-142.75;100.00;77590.09;5031107;28;20475;-68
2022/01/31 07:46:57;;;;;;;27.17;3.60;;;;;;;-142.75;100.00;77609.78;5030857;28;20017;-69
2022/01/31 07:49:23;;;;;;;27.40;3.50;;;;;;;-142.75;100.00;77592.06;5030481;28;20093;-68
2022/01/31 07:51:49;;;;;;;20.67;3.58;;;;;;;-142.75;100.00;77605.84;5030981;28;20430;-68
2022/01/31 07:54:14;;;;;;;22.25;3.05;;;;;;;-142.75;100.00;77570.41;5038422;28;20029;-68
2022/01/31 07:56:39;;;;;;;23.92;3.17;;;;;;;-142.75;100.00;77576.31;5050813;28;20028;-68
2022/01/31 07:59:05;;;;;;;18.77;3.53;;;;;;;-142.75;100.00;77578.28;5049064;28;20024;-69
2022/01/31 08:01:30;;;;;;;20.02;3.17;;;;;;;-142.75;100.00;77570.41;5050680;28;20509;-69
2022/01/31 08:03:55;;;;;;;21.52;3.88;;;;;;;-142.75;100.00;77560.56;5050643;28;20032;-69
2022/01/31 08:06:21;;;;;;;26.65;3.88;;;;;;;-142.75;100.00;77564.50;5050821;28;20117;-68
2022/01/31 08:08:46;;;;;;;29.88;3.67;;;;;;;-142.75;100.00;77542.84;5048906;28;20040;-68
2022/01/31 08:11:14;;;;;;;29.30;3.97;;;;;;;-142.75;100.00;77529.06;5050667;28;20495;-69
2022/01/31 08:13:39;;;;;;;22.07;3.67;;;;;;;-142.75;100.00;77550.72;5050563;28;20299;-69
2022/01/31 08:18:33;;;;;;;27.60;4.73;;;;;;;-142.75;100.00;77542.84;5050122;28;20028;-68
2022/01/31 08:20:59;;;;;;;28.58;4.10;;;;;;;-142.75;100.00;77534.97;5049300;28;20494;-69
2022/01/31 08:23:24;;;;;;;25.33;4.18;;;;;;;-142.75;100.00;77554.66;5049097;28;20027;-69
2022/01/31 08:25:50;;;;;;;22.60;3.97;;;;;;;-142.75;100.00;77584.19;5044349;28;20076;-68
2022/01/31 08:28:17;;;;;;;38.07;4.40;;;;;;;-142.75;100.00;77623.56;5029995;28;20284;-68
2022/01/31 08:30:55;;;;;;;28.10;4.13;;;;;;;-142.75;100.00;77647.19;5029494;28;20084;-68
2022/01/31 08:33:36;;;;;;;26.20;3.87;;;;;;;-142.75;100.00;77653.09;5030531;28;20021;-68
2022/01/31 08:36:04;;;;;;;20.97;3.57;;;;;;;-142.75;100.00;77651.13;5030372;28;20021;-68
2022/01/31 08:38:29;;;;;;;26.97;3.30;;;;;;;-142.75;100.00;77643.25;5028851;28;20598;-68
2022/01/31 08:40:55;;;;;;;28.52;4.50;;;;;;;-142.75;100.00;77647.19;5030607;28;20116;-68
2022/01/31 08:43:21;;;;;;;24.58;3.67;;;;;;;-142.75;100.00;77639.31;5030506;28;20055;-67
2022/01/31 08:45:48;;;;;;;23.50;3.17;;;;;;;-142.75;100.00;77627.50;5030344;28;20025;-65
2022/01/31 08:48:13;;;;;;;26.10;3.87;;;;;;;-142.75;100.00;77625.53;5030058;28;20028;-67
2022/01/31 08:50:39;;;;;;;22.35;4.20;;;;;;;-142.75;100.00;77617.66;5032066;28;20037;-67
2022/01/31 08:53:04;;;;;;;29.45;3.58;;;;;;;-142.75;100.00;77613.72;5034268;28;20071;-68
2022/01/31 08:55:29;;;;;;;24.65;4.00;;;;;;;-142.75;100.00;77623.56;5034146;28;20028;-68
2022/01/31 08:57:57;;;;;;;34.83;4.63;;;;;;;-142.75;100.00;77609.78;5035170;28;20033;-66
2022/01/31 09:00:33;;;;;;;29.10;4.67;;;;;;;-142.75;100.00;77625.53;5033905;28;20028;-69
2022/01/31 09:03:06;;;;;;;32.47;6.53;;;;;;;-142.75;100.00;77605.84;5034020;28;20620;-67
2022/01/31 09:05:31;;;;;;;30.43;4.93;;;;;;;-142.75;100.00;77619.63;5032687;28;20025;-68
2022/01/31 09:07:56;;;;;;;26.23;4.77;;;;;;;-142.75;100.00;77617.66;5032241;28;20044;-67
2022/01/31 09:10:21;;;;;;;42.10;5.27;;;;;;;-142.75;100.00;77611.75;5033932;28;20272;-67
2022/01/31 09:12:47;;;;;;;29.97;4.40;;;;;;;-142.75;100.00;77625.53;5033852;28;20369;-68
2022/01/31 09:15:13;;;;;;;34.50;5.13;;;;;;;-142.75;100.00;77629.47;5033779;28;20307;-68
2022/01/31 09:17:42;;;;;;;27.93;4.80;;;;;;;-142.75;100.00;77621.59;5033570;28;20260;-68
2022/01/31 09:20:08;;;;;;;38.90;5.17;;;;;;;-142.75;100.00;77627.50;5033408;28;20037;-67
2022/01/31 09:22:34;;;;;;;26.57;4.03;;;;;;;-142.75;100.00;77621.59;5033505;28;20025;-69
2022/01/31 09:24:59;;;;;;;34.05;4.88;;;;;;;-142.75;100.00;77605.84;5032376;28;20018;-68
2022/01/31 09:27:24;;;;;;;32.75;4.95;;;;;;;-142.75;100.00;77617.66;5032172;28;20017;-67
2022/01/31 09:29:50;;;;;;;27.33;4.13;;;;;;;-142.75;100.00;77617.66;5033027;28;20026;-67
2022/01/31 09:32:20;;;;;;;35.70;5.45;;;;;;;-142.75;100.00;77597.97;5033337;28;20029;-68
2022/01/31 09:34:46;;;;;;;33.37;5.37;;;;;;;-142.75;100.00;77594.03;5033398;28;20029;-68
2022/01/31 09:37:12;;;;;;;33.10;4.97;;;;;;;-142.75;100.00;77607.81;5033309;28;20028;-67
2022/01/31 09:39:37;;;;;;;31.73;4.47;;;;;;;-142.75;100.00;77594.03;5032864;28;20268;-68
2022/01/31 09:42:08;;;;;;;36.83;5.82;;;;;;;-142.75;100.00;77594.03;5032831;28;20048;-68
2022/01/31 09:44:50;;;;;;;33.37;5.70;;;;;;;-142.75;100.00;77611.75;5039186;28;20021;-67
2022/01/31 09:49:44;;;;;;;32.63;4.67;;;;;;;-142.75;100.00;77578.28;5052527;28;20033;-67
2022/01/31 09:52:09;;;;;;;29.35;5.60;;;;;;;-142.75;100.00;77609.78;5052954;28;20476;-67
2022/01/31 09:54:35;;;;;;;37.47;4.53;;;;;;;-142.75;100.00;77578.28;5052688;28;20478;-67
2022/01/31 09:57:00;;;;;;;34.15;5.53;;;;;;;-142.75;100.00;77611.75;5052407;28;20513;-67
2022/01/31 09:59:25;;;;;;;30.65;3.67;;;;;;;-142.75;100.00;77603.88;5050565;28;20117;-66
2022/01/31 10:01:54;;;;;;;30.27;5.07;;;;;;;-142.75;100.00;77586.16;5050407;28;20044;-67
2022/01/31 10:04:25;;;;;;;31.83;4.83;;;;;;;-142.75;100.00;77607.81;5034281;28;20025;-67
2022/01/31 10:06:55;;;;;;;41.57;5.17;;;;;;;-142.75;100.00;77601.91;5030933;28;20395;-67
2022/01/31 10:09:23;;;;;;;32.80;5.60;;;;;;;-142.75;100.00;77601.91;5031939;28;20051;-66
2022/01/31 10:11:50;;;;;;;31.40;5.13;;;;;;;-142.75;100.00;77615.69;5050128;28;20021;-65
2022/01/31 10:17:21;;;;;;;30.27;5.10;;;;;;;-142.75;100.00;77708.22;5052129;28;20111;-67
2022/01/31 10:19:46;;;;;;;49.83;5.73;;;;;;;-142.75;100.00;77739.75;5050075;28;20407;-68
2022/01/31 10:22:16;;;;;;;34.53;4.90;;;;;;;-142.75;100.00;77765.34;5051598;28;20025;-66
2022/01/31 10:24:44;;;;;;;37.53;5.40;;;;;;;-142.75;100.00;77745.66;5051544;28;20052;-67
2022/01/31 10:27:22;;;;;;;40.53;5.87;;;;;;;-142.75;100.00;77731.88;5052069;28;20032;-67
2022/01/31 10:29:51;;;;;;;39.27;6.43;;;;;;;-142.75;100.00;77727.94;5050929;28;20029;-67
2022/01/31 10:32:27;;;;;;;36.00;6.13;;;;;;;-142.75;100.00;77712.16;5051569;28;20037;-67
2022/01/31 10:34:56;;;;;;;31.52;5.68;;;;;;;-142.75;100.00;77688.53;5051615;28;20025;-67
2022/01/31 10:37:23;;;;;;;33.40;4.70;;;;;;;-142.75;100.00;77698.38;5031431;28;20454;-68
2022/01/31 10:54:24;;;;;;;31.87;5.03;;;;;;;-142.75;100.00;77729.88;5051295;28;20033;-67
2022/01/31 10:56:52;;;;;;;32.33;5.47;;;;;;;-142.75;100.00;77729.88;5049988;28;20112;-68
2022/01/31 10:59:22;;;;;;;38.20;5.00;;;;;;;-142.75;100.00;77735.81;5051046;28;20383;-66
2022/01/31 11:01:53;;;;;;;42.33;5.50;;;;;;;-142.75;100.00;77735.81;5049990;28;20398;-67
2022/01/31 11:04:19;;;;;;;34.97;5.53;;;;;;;-142.75;100.00;77747.63;5051086;28;20028;-68
2022/01/31 11:06:46;;;;;;;31.33;6.20;;;;;;;-142.75;100.00;77725.97;5049775;28;20064;-66
2022/01/31 11:09:17;;;;;;;41.43;6.73;;;;;;;-142.75;100.00;77725.97;5049489;28;20112;-67
2022/01/31 11:11:48;;;;;;;33.27;5.63;;;;;;;-142.75;100.00;77723.97;5046426;28;20029;-67
2022/01/31 11:14:15;;;;;;;39.53;5.90;;;;;;;-142.75;100.00;77712.16;5030871;28;20037;-68
2022/01/31 11:16:43;;;;;;;31.83;5.30;;;;;;;-142.75;100.00;77723.97;5031541;28;20022;-68
2022/01/31 11:19:10;;;;;;;37.57;6.17;;;;;;;-142.75;100.00;77718.06;5031316;28;20025;-68
2022/01/31 11:21:44;;;;;;;28.87;5.87;;;;;;;-142.75;100.00;77712.16;5050511;28;20124;-67
2022/01/31 11:24:18;;;;;;;27.90;4.90;;;;;;;-142.75;100.00;77735.81;5051513;28;20028;-68